Kleinsee, South Africa
Current Conditions -  °F | °C
As of 11:00 PM on Monday 24 Nov 2014 (Local Time) from FAUP Reporting Station
NA  
Wind Chill: 70°   Ceiling: NA
Heat Index: 70°   Visibility: NA
Dew Point: 23°   Wind: 5mph
Humidity: 17%   Direction: 260°W
Pressure: 29.97"   Gusts: NA
Location:  29.68°S, 17.07°E
Report Text: FAUP 242100Z AUTO 26004KT //// // ////// 21/M05 Q1015
Loading
Personal Weather Stations






























Interactive Weather Map New forecast layout! Learn more

10-Day Weather Forecast

Advertisements
Track Severe Weather on mobile